Time;durP1;ratioP1;P1;durP2;ratioP2;P2;SDS_P1;SDS_P2;PMS_P1;PMS_P2;Temp;Humidity;BMP_temperature;BMP_pressure;BME280_temperature;BME280_humidity;BME280_pressure;Samples;Min_cycle;Max_cycle;Signal;HPM_P1;HPM_P2
2021/03/04 00:00:35;;;;;;;62.08;24.50;;;4.30;92.00;;;;;;5072778;28;20381;-58
2021/03/04 00:03:06;;;;;;;58.27;25.00;;;4.20;92.00;;;;;;5068841;28;20052;-57
2021/03/04 00:05:33;;;;;;;64.57;25.67;;;4.20;92.00;;;;;;5081751;28;20045;-56
2021/03/04 00:08:00;;;;;;;59.55;23.35;;;4.20;91.90;;;;;;5072868;28;20039;-56
2021/03/04 00:10:28;;;;;;;63.58;24.38;;;4.20;92.00;;;;;;5069599;28;20131;-57
2021/03/04 00:12:55;;;;;;;64.00;25.00;;;4.10;92.00;;;;;;5071431;28;20040;-56
2021/03/04 00:15:22;;;;;;;60.80;24.05;;;4.20;91.90;;;;;;5072198;28;20045;-57
2021/03/04 00:17:49;;;;;;;62.35;23.30;;;4.20;92.00;;;;;;5073731;28;20413;-56
2021/03/04 00:20:24;;;;;;;58.33;23.83;;;4.10;92.00;;;;;;5069552;28;20397;-55
2021/03/04 00:22:50;;;;;;;65.47;24.23;;;4.10;92.00;;;;;;5072516;28;20049;-57
2021/03/04 00:25:19;;;;;;;67.07;24.77;;;4.10;92.00;;;;;;5064047;28;20448;-57
2021/03/04 00:27:48;;;;;;;62.75;24.25;;;4.10;92.10;;;;;;5070866;28;20545;-54
2021/03/04 00:30:19;;;;;;;58.53;23.10;;;4.10;92.10;;;;;;5066652;28;20108;-56
2021/03/04 00:32:45;;;;;;;64.03;24.13;;;4.20;92.10;;;;;;5069608;28;20500;-57
2021/03/04 00:35:11;;;;;;;67.68;25.10;;;4.20;92.00;;;;;;5078791;28;20044;-55
2021/03/04 00:37:37;;;;;;;57.95;22.25;;;4.20;92.00;;;;;;5072623;28;20123;-57
2021/03/04 00:40:22;;;;;;;66.10;24.92;;;4.20;92.10;;;;;;5068804;28;20107;-56
2021/03/04 00:42:48;;;;;;;63.15;24.15;;;4.20;92.10;;;;;;5074058;28;20040;-56
2021/03/04 00:45:19;;;;;;;60.95;24.80;;;4.20;92.10;;;;;;5071781;28;20037;-55
2021/03/04 00:47:46;;;;;;;58.10;24.00;;;4.20;92.10;;;;;;5072532;28;20054;-57
2021/03/04 00:50:12;;;;;;;70.20;25.05;;;4.20;92.20;;;;;;5072587;28;20075;-56
2021/03/04 00:52:38;;;;;;;59.10;23.67;;;4.10;92.20;;;;;;5067313;28;20111;-55
2021/03/04 00:55:06;;;;;;;62.13;23.25;;;4.20;92.30;;;;;;5069411;28;20043;-54
2021/03/04 00:57:32;;;;;;;67.10;24.45;;;4.20;92.30;;;;;;5075849;28;20032;-56
2021/03/04 00:59:57;;;;;;;62.00;23.92;;;4.20;92.20;;;;;;5072606;28;20109;-54
2021/03/04 01:02:23;;;;;;;60.17;23.10;;;4.10;92.30;;;;;;5079926;28;20127;-55
2021/03/04 01:04:49;;;;;;;57.63;21.65;;;4.10;92.30;;;;;;5081152;28;20052;-55
2021/03/04 01:07:15;;;;;;;60.35;21.52;;;4.20;92.30;;;;;;5079904;28;20031;-52
2021/03/04 01:09:40;;;;;;;55.78;20.98;;;4.20;92.20;;;;;;5071656;28;20045;-55
2021/03/04 01:12:06;;;;;;;64.15;22.17;;;4.20;92.20;;;;;;5071560;28;20473;-54
2021/03/04 01:14:32;;;;;;;55.35;20.52;;;4.20;92.30;;;;;;5070741;28;20040;-55
2021/03/04 01:16:59;;;;;;;53.83;21.30;;;4.20;92.20;;;;;;5070746;28;20560;-55
2021/03/04 01:19:25;;;;;;;51.28;20.02;;;4.10;92.10;;;;;;5074016;28;20107;-54
2021/03/04 01:21:51;;;;;;;54.38;20.60;;;4.10;92.10;;;;;;5073638;28;20137;-56
2021/03/04 01:24:18;;;;;;;52.78;19.38;;;4.10;92.10;;;;;;5058240;28;20052;-55
2021/03/04 01:26:43;;;;;;;48.50;19.67;;;4.10;92.00;;;;;;5077912;28;20040;-54
2021/03/04 01:29:09;;;;;;;51.30;19.90;;;4.10;92.10;;;;;;5074755;28;20044;-55
2021/03/04 01:31:35;;;;;;;46.08;19.70;;;4.10;92.10;;;;;;5076733;28;20102;-55
2021/03/04 01:34:01;;;;;;;48.20;18.85;;;4.10;92.10;;;;;;5070944;28;20066;-53
2021/03/04 01:36:27;;;;;;;53.28;20.27;;;4.10;92.10;;;;;;5074755;28;20040;-56
2021/03/04 01:38:52;;;;;;;56.40;20.55;;;4.10;92.10;;;;;;5071775;28;20037;-56
2021/03/04 01:41:18;;;;;;;53.08;20.02;;;4.10;92.10;;;;;;5073033;28;20170;-54
2021/03/04 01:43:44;;;;;;;51.53;21.15;;;4.10;92.10;;;;;;5075388;28;20040;-54
2021/03/04 01:46:10;;;;;;;53.88;20.15;;;4.10;92.10;;;;;;5084400;28;20503;-54
2021/03/04 01:48:36;;;;;;;49.35;19.67;;;4.20;92.10;;;;;;5068318;28;20041;-55
2021/03/04 01:51:03;;;;;;;48.80;17.77;;;4.10;92.10;;;;;;5067901;28;20041;-54
2021/03/04 01:53:29;;;;;;;50.97;20.63;;;4.10;92.10;;;;;;5077294;28;20119;-57
2021/03/04 01:55:56;;;;;;;50.70;19.25;;;4.10;91.90;;;;;;5069381;28;20135;-55
2021/03/04 01:58:23;;;;;;;45.08;18.65;;;4.10;92.00;;;;;;5071590;28;20556;-55
2021/03/04 02:00:49;;;;;;;48.13;18.67;;;4.10;92.10;;;;;;5071145;28;20040;-55
2021/03/04 02:03:14;;;;;;;49.28;17.90;;;4.00;92.10;;;;;;5074375;28;20527;-57
2021/03/04 02:05:41;;;;;;;46.78;17.30;;;4.10;92.10;;;;;;5071740;28;20037;-55
2021/03/04 02:08:23;;;;;;;50.63;18.05;;;4.00;92.10;;;;;;5073320;28;20033;-54
2021/03/04 02:10:52;;;;;;;;;;;4.10;92.20;;;;;;5079696;28;20104;-56
2021/03/04 02:13:36;;;;;;;46.55;17.83;;;4.20;92.30;;;;;;5070732;28;19943;-56
2021/03/04 02:16:25;;;;;;;55.80;18.98;;;4.00;92.20;;;;;;5079979;28;20056;-57
2021/03/04 02:18:56;;;;;;;50.88;18.23;;;4.10;92.20;;;;;;5065726;28;20036;-55
2021/03/04 02:21:54;;;;;;;52.17;18.75;;;4.00;92.10;;;;;;5066771;28;20050;-56
2021/03/04 02:24:29;;;;;;;52.03;18.77;;;4.00;92.20;;;;;;5068475;28;20500;-56
2021/03/04 02:27:13;;;;;;;49.15;17.85;;;4.00;92.30;;;;;;5077088;28;20043;-55
2021/03/04 02:29:46;;;;;;;54.58;18.67;;;4.00;92.20;;;;;;5072157;28;20110;-55
2021/03/04 02:32:13;;;;;;;54.20;18.92;;;4.00;92.30;;;;;;5059854;28;20112;-58
2021/03/04 02:34:49;;;;;;;50.30;19.25;;;3.90;92.30;;;;;;5037148;28;20056;-52
2021/03/04 02:37:18;;;;;;;55.55;18.30;;;4.00;92.40;;;;;;5073005;28;20044;-54
2021/03/04 02:39:49;;;;;;;56.03;19.52;;;4.00;92.40;;;;;;5072172;28;20419;-55
2021/03/04 02:42:18;;;;;;;49.95;18.20;;;4.00;92.40;;;;;;5074046;28;20044;-54
2021/03/04 02:44:45;;;;;;;51.38;18.95;;;4.00;92.40;;;;;;5071207;28;20086;-54
2021/03/04 02:47:13;;;;;;;55.67;19.23;;;4.00;92.40;;;;;;5073361;28;20115;-53
2021/03/04 02:49:40;;;;;;;56.47;19.48;;;4.00;92.50;;;;;;5070365;28;20115;-55
2021/03/04 02:52:07;;;;;;;59.13;19.55;;;4.10;92.50;;;;;;5069985;28;20484;-54
2021/03/04 02:54:33;;;;;;;62.13;20.52;;;4.00;92.60;;;;;;5071895;28;20052;-55
2021/03/04 02:57:02;;;;;;;59.83;19.55;;;4.10;92.60;;;;;;5093484;28;21127;-54
2021/03/04 02:59:30;;;;;;;57.53;20.30;;;4.00;92.50;;;;;;5074883;28;20492;-54
2021/03/04 03:01:56;;;;;;;57.85;19.77;;;4.00;92.50;;;;;;5054117;28;20052;-51
2021/03/04 03:04:23;;;;;;;54.67;20.15;;;4.00;92.70;;;;;;5072980;28;20451;-55
2021/03/04 03:06:50;;;;;;;54.15;18.38;;;4.10;92.50;;;;;;5075200;28;20154;-54
2021/03/04 03:09:16;;;;;;;56.65;19.02;;;4.00;92.50;;;;;;5075089;28;20040;-57
2021/03/04 03:11:42;;;;;;;56.47;18.33;;;4.10;92.50;;;;;;5072781;28;20413;-56
2021/03/04 03:14:09;;;;;;;43.65;16.27;;;4.00;92.60;;;;;;5072883;28;20062;-56
2021/03/04 03:16:35;;;;;;;49.75;16.65;;;4.00;92.60;;;;;;5067420;28;20047;-56
2021/03/04 03:19:01;;;;;;;48.00;17.33;;;3.90;92.80;;;;;;5065758;28;20115;-56
2021/03/04 03:21:26;;;;;;;48.15;17.33;;;3.90;92.60;;;;;;5064461;28;20040;-55
2021/03/04 03:23:52;;;;;;;49.55;16.98;;;3.90;92.70;;;;;;5070341;28;20040;-53
2021/03/04 03:26:18;;;;;;;46.60;17.40;;;3.90;92.70;;;;;;5069883;28;20397;-54
2021/03/04 03:28:44;;;;;;;46.33;16.88;;;3.90;92.70;;;;;;5071034;28;20032;-57
2021/03/04 03:31:10;;;;;;;46.33;16.65;;;3.90;92.70;;;;;;5065770;28;20178;-57
2021/03/04 03:33:37;;;;;;;42.88;15.10;;;3.90;92.70;;;;;;5071452;28;20036;-53
2021/03/04 03:36:06;;;;;;;43.25;15.05;;;3.90;92.70;;;;;;5070228;28;20040;-56
2021/03/04 03:38:33;;;;;;;40.38;15.88;;;3.90;92.70;;;;;;5071381;28;20424;-55
2021/03/04 03:41:03;;;;;;;42.83;15.82;;;4.00;92.50;;;;;;5063165;28;20053;-55
2021/03/04 03:43:30;;;;;;;43.72;15.63;;;3.90;92.60;;;;;;5063423;28;20052;-52
2021/03/04 03:45:57;;;;;;;41.90;15.65;;;3.90;92.50;;;;;;5074532;28;20040;-55
2021/03/04 03:48:26;;;;;;;48.15;15.88;;;3.90;92.60;;;;;;5068930;28;20040;-54
2021/03/04 03:50:53;;;;;;;40.95;15.95;;;3.90;92.60;;;;;;5069410;28;20067;-57
2021/03/04 03:53:20;;;;;;;43.65;15.02;;;3.90;92.80;;;;;;5072658;28;20040;-55
2021/03/04 03:55:48;;;;;;;47.50;16.83;;;3.80;92.70;;;;;;5070540;28;20493;-55
2021/03/04 03:58:20;;;;;;;41.78;15.63;;;3.80;92.70;;;;;;5069468;28;20271;-54
2021/03/04 04:00:46;;;;;;;47.33;15.82;;;3.80;92.70;;;;;;5068102;28;20044;-55
2021/03/04 04:03:12;;;;;;;44.38;15.85;;;3.80;92.90;;;;;;5070236;28;20048;-56
2021/03/04 04:05:38;;;;;;;43.28;15.88;;;3.80;92.80;;;;;;5071371;28;20029;-54
2021/03/04 04:08:05;;;;;;;44.50;15.88;;;3.80;92.80;;;;;;5069432;28;20049;-55
2021/03/04 04:10:33;;;;;;;45.10;16.15;;;4.00;92.90;;;;;;5071935;28;20094;-55
2021/03/04 04:12:59;;;;;;;40.60;15.80;;;3.80;93.10;;;;;;5072694;28;20040;-55
2021/03/04 04:15:27;;;;;;;43.30;15.32;;;3.80;93.00;;;;;;5073270;28;20464;-53
2021/03/04 04:17:56;;;;;;;39.88;16.00;;;3.80;93.10;;;;;;5072997;28;20080;-55
2021/03/04 04:20:22;;;;;;;46.60;16.55;;;3.90;93.00;;;;;;5072463;28;20045;-54
2021/03/04 04:22:50;;;;;;;52.70;16.55;;;3.90;92.90;;;;;;5073653;28;20040;-51
2021/03/04 04:25:21;;;;;;;44.13;15.50;;;3.90;93.00;;;;;;5073721;28;20043;-55
2021/03/04 04:27:54;;;;;;;44.65;15.77;;;3.90;93.00;;;;;;5073685;28;20504;-55
2021/03/04 04:30:22;;;;;;;47.50;16.27;;;3.90;93.00;;;;;;5073022;28;20344;-55
2021/03/04 04:32:48;;;;;;;43.30;15.20;;;3.90;93.00;;;;;;5073099;28;20044;-55
2021/03/04 04:35:15;;;;;;;44.75;15.77;;;3.90;93.00;;;;;;5072539;28;20043;-55
2021/03/04 04:37:41;;;;;;;46.65;15.73;;;3.90;93.00;;;;;;5071791;28;20036;-54
2021/03/04 04:40:08;;;;;;;45.80;16.00;;;3.90;93.10;;;;;;5072229;28;20071;-57
2021/03/04 04:42:34;;;;;;;43.85;15.50;;;3.90;93.00;;;;;;5070939;28;20505;-56
2021/03/04 04:45:00;;;;;;;46.80;16.17;;;3.90;93.10;;;;;;5072423;28;20039;-55
2021/03/04 04:47:26;;;;;;;42.55;15.55;;;4.00;93.10;;;;;;5078056;28;20075;-54
2021/03/04 04:49:52;;;;;;;41.03;14.82;;;4.00;93.10;;;;;;5073811;28;20071;-56
2021/03/04 04:52:18;;;;;;;39.15;15.27;;;4.00;93.10;;;;;;5074028;28;20055;-56
2021/03/04 04:54:45;;;;;;;43.63;15.52;;;4.00;93.10;;;;;;5070777;28;20037;-56
2021/03/04 04:57:11;;;;;;;46.17;15.07;;;4.00;93.20;;;;;;5079156;28;20033;-55
2021/03/04 04:59:37;;;;;;;47.05;16.02;;;4.00;93.10;;;;;;5072451;28;20558;-55
2021/03/04 05:02:03;;;;;;;49.47;16.27;;;4.00;93.10;;;;;;5079059;28;20054;-53
2021/03/04 05:04:28;;;;;;;49.13;16.88;;;4.00;93.10;;;;;;5073722;28;20074;-55
2021/03/04 05:06:54;;;;;;;50.42;17.63;;;4.00;93.10;;;;;;5079135;28;20119;-55
2021/03/04 05:09:20;;;;;;;44.90;16.65;;;4.00;93.10;;;;;;5071584;28;20531;-55
2021/03/04 05:11:46;;;;;;;54.63;17.48;;;4.00;93.10;;;;;;5076442;28;20076;-56
2021/03/04 05:14:12;;;;;;;50.05;16.80;;;4.00;93.30;;;;;;5070780;28;20492;-56
2021/03/04 05:16:37;;;;;;;49.35;16.70;;;4.00;93.20;;;;;;5078441;28;20395;-55
2021/03/04 05:19:03;;;;;;;42.85;15.45;;;4.00;93.30;;;;;;5080718;28;20105;-55
2021/03/04 05:21:30;;;;;;;49.72;17.30;;;4.00;93.30;;;;;;5086372;28;20036;-55
2021/03/04 05:23:56;;;;;;;49.47;16.58;;;4.10;93.30;;;;;;5075544;28;20044;-55
2021/03/04 05:26:22;;;;;;;45.33;16.67;;;4.10;93.20;;;;;;5072117;28;20097;-56
2021/03/04 05:28:48;;;;;;;50.60;16.30;;;4.10;93.30;;;;;;5066209;28;20115;-55
2021/03/04 05:31:14;;;;;;;45.05;16.08;;;4.10;93.30;;;;;;5075680;28;20041;-56
2021/03/04 05:33:40;;;;;;;47.38;16.48;;;4.10;93.10;;;;;;5073971;28;20056;-52
2021/03/04 05:36:07;;;;;;;50.80;17.02;;;4.10;93.10;;;;;;5077605;28;20040;-56
2021/03/04 05:38:33;;;;;;;48.85;16.88;;;4.10;93.20;;;;;;5077634;28;20068;-56
2021/03/04 05:40:58;;;;;;;52.38;18.45;;;4.10;93.30;;;;;;5052104;28;20068;-57
2021/03/04 05:43:24;;;;;;;49.42;16.83;;;4.00;93.30;;;;;;5069053;28;20044;-55
2021/03/04 05:45:52;;;;;;;53.35;17.13;;;4.10;93.40;;;;;;5070938;28;20051;-52
2021/03/04 05:48:21;;;;;;;45.00;15.55;;;4.00;93.30;;;;;;5065644;28;20048;-54
2021/03/04 05:50:50;;;;;;;43.85;15.60;;;4.00;93.30;;;;;;5070973;28;20071;-57
2021/03/04 05:53:19;;;;;;;43.15;15.88;;;4.00;93.20;;;;;;5073325;28;20028;-53
2021/03/04 05:55:44;;;;;;;41.78;14.95;;;4.00;93.30;;;;;;5066550;28;20173;-56
2021/03/04 05:58:11;;;;;;;37.45;14.25;;;4.10;93.30;;;;;;5070208;28;20045;-54
2021/03/04 06:00:37;;;;;;;38.92;14.05;;;4.00;93.20;;;;;;5069558;28;20504;-57
2021/03/04 06:03:07;;;;;;;45.53;15.57;;;4.00;93.10;;;;;;5078920;28;20036;-57
2021/03/04 06:05:33;;;;;;;41.70;14.85;;;4.00;93.20;;;;;;5082860;28;20424;-55
2021/03/04 06:08:02;;;;;;;43.50;15.20;;;4.10;93.00;;;;;;5073090;28;20043;-53
2021/03/04 06:10:28;;;;;;;39.13;15.30;;;4.10;93.00;;;;;;5072554;28;20049;-56
2021/03/04 06:12:55;;;;;;;36.08;13.55;;;4.10;93.10;;;;;;5071294;28;20036;-55
2021/03/04 06:15:24;;;;;;;37.15;14.23;;;4.10;93.10;;;;;;5085500;28;20519;-55
2021/03/04 06:18:00;;;;;;;40.03;13.75;;;4.10;92.90;;;;;;5077520;28;20066;-55
2021/03/04 06:20:39;;;;;;;35.40;13.55;;;4.10;93.00;;;;;;5070527;28;20535;-58
2021/03/04 06:23:06;;;;;;;30.65;12.85;;;4.10;93.00;;;;;;5062796;28;20040;-57
2021/03/04 06:25:32;;;;;;;39.45;13.68;;;4.10;93.00;;;;;;5068796;28;20118;-55
2021/03/04 06:27:59;;;;;;;31.15;13.25;;;4.10;93.00;;;;;;5075953;28;20043;-55
2021/03/04 06:30:32;;;;;;;33.35;12.55;;;4.10;93.00;;;;;;5063690;28;20504;-56
2021/03/04 06:33:00;;;;;;;30.35;12.70;;;4.10;93.00;;;;;;5068935;28;20050;-56
2021/03/04 06:35:35;;;;;;;34.38;12.55;;;4.00;93.10;;;;;;5063453;28;20040;-55
2021/03/04 06:38:12;;;;;;;35.50;13.93;;;4.10;93.10;;;;;;5072651;28;20039;-55
2021/03/04 06:40:38;;;;;;;31.67;13.52;;;4.20;92.70;;;;;;5063067;28;20115;-54
2021/03/04 06:43:04;;;;;;;33.33;14.10;;;4.20;92.80;;;;;;5065169;28;20286;-54
2021/03/04 06:45:39;;;;;;;26.52;11.32;;;4.10;92.90;;;;;;5060623;28;20536;-58
2021/03/04 06:48:15;;;;;;;24.55;11.55;;;4.10;92.80;;;;;;5069424;28;20040;-57
2021/03/04 06:50:49;;;;;;;23.25;10.60;;;4.10;92.70;;;;;;5068565;28;20497;-56
2021/03/04 06:53:20;;;;;;;21.25;10.02;;;4.10;92.60;;;;;;5069450;28;20491;-55
2021/03/04 06:56:06;;;;;;;19.80;9.20;;;4.20;92.20;;;;;;5066978;28;20076;-56
2021/03/04 06:58:37;;;;;;;22.95;10.13;;;4.10;92.20;;;;;;5072980;28;20036;-55
2021/03/04 07:01:09;;;;;;;17.83;9.20;;;4.10;91.90;;;;;;5066432;28;20079;-54
2021/03/04 07:03:38;;;;;;;18.58;8.63;;;4.10;92.00;;;;;;5069760;28;20040;-56
2021/03/04 07:06:07;;;;;;;15.82;7.78;;;4.10;91.80;;;;;;5068081;28;20047;-56
2021/03/04 07:08:35;;;;;;;16.27;8.05;;;4.00;92.20;;;;;;5052093;28;20063;-57
2021/03/04 07:11:06;;;;;;;17.85;8.18;;;3.90;92.20;;;;;;5071828;28;20452;-55
2021/03/04 07:13:34;;;;;;;17.05;7.60;;;3.80;92.40;;;;;;5069156;28;20497;-56
2021/03/04 07:16:08;;;;;;;15.90;8.05;;;3.90;92.00;;;;;;5071264;28;20043;-56
2021/03/04 07:18:40;;;;;;;15.05;7.43;;;3.90;92.10;;;;;;5064854;28;20044;-55
2021/03/04 07:21:11;;;;;;;19.20;7.93;;;3.80;92.30;;;;;;5070548;28;20404;-56
2021/03/04 07:23:39;;;;;;;14.20;6.93;;;3.80;92.30;;;;;;5069025;28;20083;-56
2021/03/04 07:26:06;;;;;;;15.45;7.22;;;3.80;92.20;;;;;;5067987;28;20032;-55
2021/03/04 07:28:32;;;;;;;16.15;7.43;;;3.80;92.20;;;;;;5064949;28;20035;-55
2021/03/04 07:30:59;;;;;;;15.57;7.20;;;3.70;92.40;;;;;;5069890;28;20041;-56
2021/03/04 07:33:27;;;;;;;13.32;6.70;;;3.80;92.40;;;;;;5074259;28;20554;-55
2021/03/04 07:35:53;;;;;;;14.02;6.68;;;3.80;92.50;;;;;;5072485;28;20072;-56
2021/03/04 07:38:27;;;;;;;12.23;5.85;;;3.70;92.30;;;;;;5070842;28;20036;-55
2021/03/04 07:41:07;;;;;;;15.80;6.80;;;3.80;92.40;;;;;;5067857;28;20041;-56
2021/03/04 07:43:47;;;;;;;14.35;6.97;;;3.80;92.40;;;;;;5069108;28;20071;-56
2021/03/04 07:46:29;;;;;;;14.48;6.50;;;3.80;92.40;;;;;;5071491;28;20051;-56
2021/03/04 07:48:56;;;;;;;16.23;7.45;;;3.80;92.40;;;;;;5080299;28;20101;-56
2021/03/04 07:51:22;;;;;;;12.57;6.80;;;3.80;92.40;;;;;;5068484;28;20045;-56
2021/03/04 07:53:48;;;;;;;14.52;6.93;;;3.80;92.40;;;;;;5068230;28;20579;-56
2021/03/04 07:56:25;;;;;;;13.30;6.80;;;3.80;92.40;;;;;;5063326;28;20095;-55
2021/03/04 07:58:51;;;;;;;15.32;6.95;;;3.80;92.40;;;;;;5068634;28;20040;-57
2021/03/04 08:01:17;;;;;;;13.52;6.70;;;3.80;92.40;;;;;;5061922;28;20045;-56
2021/03/04 08:03:47;;;;;;;14.50;7.55;;;3.90;92.50;;;;;;5067852;28;20450;-56
2021/03/04 08:06:13;;;;;;;14.27;6.88;;;3.90;92.40;;;;;;5073967;28;20044;-56
2021/03/04 08:08:40;;;;;;;15.20;6.82;;;3.90;92.40;;;;;;5075116;28;20040;-56
2021/03/04 08:11:06;;;;;;;13.45;6.85;;;3.90;92.40;;;;;;5068367;28;20063;-56
2021/03/04 08:13:38;;;;;;;14.90;7.03;;;3.90;92.40;;;;;;5068608;28;20548;-55
2021/03/04 08:16:13;;;;;;;14.00;6.70;;;3.90;92.70;;;;;;5058374;28;20028;-56
2021/03/04 08:18:40;;;;;;;14.38;7.28;;;3.90;92.50;;;;;;5060211;28;20115;-56
2021/03/04 08:21:07;;;;;;;15.25;6.82;;;3.90;92.40;;;;;;5062849;28;20279;-55
2021/03/04 08:23:43;;;;;;;12.05;6.38;;;4.00;92.50;;;;;;5059983;28;20052;-56
2021/03/04 08:26:29;;;;;;;15.73;7.45;;;4.00;92.40;;;;;;5066270;28;20121;-56
2021/03/04 08:29:12;;;;;;;14.20;7.50;;;4.00;92.40;;;;;;5064438;28;20094;-56
2021/03/04 08:31:43;;;;;;;15.02;7.97;;;4.00;92.50;;;;;;5059383;28;20306;-56
2021/03/04 08:34:09;;;;;;;16.05;7.68;;;4.10;92.50;;;;;;5064071;28;20049;-56
2021/03/04 08:36:43;;;;;;;14.68;7.68;;;4.20;92.40;;;;;;5065344;28;20044;-55
2021/03/04 08:39:09;;;;;;;15.43;8.20;;;4.20;92.40;;;;;;5060504;28;20036;-56
2021/03/04 08:41:35;;;;;;;15.23;8.27;;;4.30;92.40;;;;;;5061141;28;20435;-56
2021/03/04 08:44:14;;;;;;;16.00;8.57;;;4.30;92.30;;;;;;5064422;28;20040;-56
2021/03/04 08:46:46;;;;;;;17.23;8.75;;;4.40;92.40;;;;;;5049971;28;20513;-56
2021/03/04 08:49:18;;;;;;;15.75;7.95;;;4.50;92.30;;;;;;5060404;28;20536;-56
2021/03/04 08:51:44;;;;;;;16.00;7.97;;;4.50;92.10;;;;;;5065655;28;20111;-56
2021/03/04 08:54:21;;;;;;;14.07;7.72;;;4.50;92.00;;;;;;5063530;28;20098;-56
2021/03/04 08:56:57;;;;;;;15.68;8.35;;;4.50;92.10;;;;;;5063526;28;20140;-56
2021/03/04 08:59:26;;;;;;;14.85;8.07;;;4.60;92.00;;;;;;5049972;28;20095;-56
2021/03/04 09:01:57;;;;;;;14.57;7.85;;;4.60;92.00;;;;;;5056364;28;20116;-54
2021/03/04 09:04:25;;;;;;;16.02;8.65;;;4.60;91.80;;;;;;5060571;28;20485;-56
2021/03/04 09:06:51;;;;;;;16.05;8.55;;;4.60;91.80;;;;;;5061279;28;20409;-56
2021/03/04 09:09:28;;;;;;;18.10;9.15;;;4.70;91.80;;;;;;5068079;28;20047;-55
2021/03/04 09:11:56;;;;;;;14.32;7.85;;;4.60;91.60;;;;;;5063060;28;20040;-56
2021/03/04 09:14:31;;;;;;;14.70;7.95;;;4.60;91.70;;;;;;5071761;28;20106;-55
2021/03/04 09:16:57;;;;;;;16.95;8.95;;;4.60;91.70;;;;;;5066678;28;20505;-55
2021/03/04 09:19:31;;;;;;;15.10;8.65;;;4.60;91.70;;;;;;5064780;28;20032;-56
2021/03/04 09:22:04;;;;;;;16.98;9.10;;;4.60;91.80;;;;;;5055393;28;20158;-56
2021/03/04 09:24:34;;;;;;;15.70;8.18;;;4.60;91.80;;;;;;5062554;28;20093;-57
2021/03/04 09:27:07;;;;;;;15.20;7.95;;;4.60;91.80;;;;;;5077329;28;20036;-58
2021/03/04 09:29:33;;;;;;;14.05;7.90;;;4.70;91.80;;;;;;5066114;28;20488;-57
2021/03/04 09:31:59;;;;;;;15.35;8.23;;;4.60;91.60;;;;;;5077057;28;20043;-57
2021/03/04 09:34:33;;;;;;;14.68;8.18;;;4.70;91.60;;;;;;5063028;28;20048;-57
2021/03/04 09:37:07;;;;;;;14.27;7.97;;;4.70;91.80;;;;;;5062127;28;20143;-56
2021/03/04 09:39:45;;;;;;;14.65;7.97;;;4.70;91.70;;;;;;5065139;28;20115;-57
2021/03/04 09:42:16;;;;;;;19.80;8.20;;;4.80;91.80;;;;;;5071444;28;20549;-57
2021/03/04 09:44:51;;;;;;;15.55;8.05;;;4.80;91.70;;;;;;5066096;28;20101;-57
2021/03/04 09:47:19;;;;;;;15.30;8.35;;;4.80;91.70;;;;;;5063202;28;20053;-57
2021/03/04 09:49:45;;;;;;;14.32;7.72;;;4.90;91.60;;;;;;5074775;28;20048;-58
2021/03/04 09:52:25;;;;;;;15.20;7.95;;;4.90;91.50;;;;;;5056710;28;20347;-56
2021/03/04 09:55:02;;;;;;;13.75;8.35;;;4.90;91.50;;;;;;5044504;28;20541;-57
2021/03/04 09:57:28;;;;;;;16.90;8.05;;;5.00;91.60;;;;;;5045878;28;20048;-57
2021/03/04 09:59:54;;;;;;;17.30;9.15;;;5.00;91.50;;;;;;5058477;28;20418;-55
2021/03/04 10:02:20;;;;;;;14.95;7.63;;;5.00;91.40;;;;;;5052482;28;20481;-58
2021/03/04 10:05:03;;;;;;;12.40;7.22;;;5.10;91.10;;;;;;5057052;28;20049;-56
2021/03/04 10:07:31;;;;;;;15.88;8.25;;;5.10;91.00;;;;;;5070981;28;20119;-55
2021/03/04 10:09:58;;;;;;;16.73;7.60;;;5.10;91.20;;;;;;5056079;28;20056;-57
2021/03/04 10:12:25;;;;;;;13.07;6.82;;;5.10;91.10;;;;;;5061253;28;20033;-57
2021/03/04 10:14:53;;;;;;;13.32;6.88;;;5.10;91.00;;;;;;5057342;28;20033;-57
2021/03/04 10:17:19;;;;;;;12.63;6.85;;;5.10;91.00;;;;;;5059073;28;20120;-56
2021/03/04 10:19:45;;;;;;;13.60;6.97;;;5.10;91.00;;;;;;5056032;28;20139;-57
2021/03/04 10:22:11;;;;;;;14.35;7.22;;;5.10;90.90;;;;;;5065776;28;20040;-57
2021/03/04 10:24:37;;;;;;;11.93;6.65;;;5.10;91.00;;;;;;5052691;28;20051;-55
2021/03/04 10:27:05;;;;;;;11.30;6.20;;;5.10;90.90;;;;;;5060888;28;20059;-57
2021/03/04 10:29:32;;;;;;;12.80;6.97;;;5.20;91.00;;;;;;5059759;28;20050;-56
2021/03/04 10:31:58;;;;;;;11.38;6.70;;;5.20;90.80;;;;;;5057615;28;20127;-57
2021/03/04 10:34:26;;;;;;;11.02;6.40;;;5.20;90.90;;;;;;5056311;28;20123;-55
2021/03/04 10:36:52;;;;;;;12.10;6.68;;;5.30;90.80;;;;;;5051059;28;20044;-56
2021/03/04 10:39:19;;;;;;;10.60;6.13;;;5.30;90.70;;;;;;5055950;28;20033;-54
2021/03/04 10:41:45;;;;;;;10.73;6.05;;;5.40;90.70;;;;;;5056161;28;20531;-56
2021/03/04 10:44:11;;;;;;;14.55;5.90;;;5.40;90.50;;;;;;5053433;28;20041;-56
2021/03/04 10:46:38;;;;;;;11.52;5.70;;;5.40;90.40;;;;;;5062224;28;20045;-54
2021/03/04 10:49:05;;;;;;;11.50;5.70;;;5.50;90.20;;;;;;5065007;28;20107;-55
2021/03/04 10:51:31;;;;;;;10.25;5.53;;;5.50;90.10;;;;;;5058765;28;20048;-57
2021/03/04 10:53:57;;;;;;;14.68;6.07;;;5.40;90.00;;;;;;5070869;28;20142;-55
2021/03/04 10:56:23;;;;;;;12.25;5.50;;;5.50;90.10;;;;;;5073219;28;20545;-55
2021/03/04 10:58:49;;;;;;;9.23;5.15;;;5.50;90.10;;;;;;5064680;28;20044;-54
2021/03/04 11:01:14;;;;;;;12.93;5.88;;;5.40;90.10;;;;;;5065860;28;20098;-56
2021/03/04 11:03:40;;;;;;;10.32;5.85;;;5.50;90.20;;;;;;5059065;28;20189;-55
2021/03/04 11:06:07;;;;;;;10.88;6.20;;;5.50;90.20;;;;;;5063948;28;20036;-57
2021/03/04 11:08:32;;;;;;;10.27;5.93;;;5.60;90.10;;;;;;5060092;28;20522;-57
2021/03/04 11:10:58;;;;;;;12.00;5.75;;;5.60;90.00;;;;;;5063599;28;20064;-57
2021/03/04 11:13:25;;;;;;;13.40;6.38;;;5.60;89.10;;;;;;5064450;28;20056;-56
2021/03/04 11:15:51;;;;;;;14.05;6.40;;;5.60;89.90;;;;;;5062159;28;20389;-57
2021/03/04 11:18:17;;;;;;;14.27;7.00;;;5.60;90.10;;;;;;5055916;28;20052;-57
2021/03/04 11:20:43;;;;;;;14.73;7.20;;;5.60;90.00;;;;;;5073448;28;20043;-58
2021/03/04 11:23:08;;;;;;;12.32;6.53;;;5.60;90.10;;;;;;5075677;28;20048;-55
2021/03/04 11:25:34;;;;;;;12.43;6.40;;;5.70;90.10;;;;;;5073798;28;20029;-55
2021/03/04 11:28:00;;;;;;;13.38;6.75;;;5.70;90.00;;;;;;5058242;28;20052;-55
2021/03/04 11:30:25;;;;;;;12.30;7.10;;;5.70;89.90;;;;;;5080178;28;20040;-57
2021/03/04 11:32:51;;;;;;;12.90;6.47;;;5.80;90.00;;;;;;5069281;28;20569;-58
2021/03/04 11:35:17;;;;;;;11.15;6.30;;;5.80;90.00;;;;;;5077520;28;20052;-55
2021/03/04 11:37:42;;;;;;;11.43;6.65;;;5.90;89.90;;;;;;5066530;28;20037;-57
2021/03/04 11:40:09;;;;;;;13.10;6.20;;;5.90;89.80;;;;;;5050691;28;20045;-55
2021/03/04 11:42:34;;;;;;;14.35;7.07;;;5.90;89.70;;;;;;5050156;28;20044;-56
2021/03/04 11:45:00;;;;;;;11.70;6.20;;;5.90;89.70;;;;;;5053833;28;20044;-55
2021/03/04 11:47:26;;;;;;;12.50;6.30;;;5.90;89.90;;;;;;5061879;28;20074;-57
2021/03/04 11:49:54;;;;;;;11.82;6.80;;;5.90;89.90;;;;;;5068675;28;20495;-56
2021/03/04 11:52:20;;;;;;;11.25;6.10;;;5.90;90.00;;;;;;5067068;28;20451;-56
2021/03/04 11:54:46;;;;;;;11.45;6.15;;;5.90;89.90;;;;;;5066250;28;20038;-55
2021/03/04 11:57:11;;;;;;;17.35;6.32;;;5.90;89.80;;;;;;5068204;28;20044;-56
2021/03/04 11:59:37;;;;;;;9.77;6.03;;;5.90;90.00;;;;;;5060104;28;20029;-57
2021/03/04 12:02:03;;;;;;;13.65;6.28;;;5.90;90.10;;;;;;5056878;28;20036;-57
2021/03/04 12:04:29;;;;;;;13.48;6.60;;;5.90;90.00;;;;;;5076663;28;20041;-57
2021/03/04 12:06:55;;;;;;;10.02;5.93;;;5.90;90.10;;;;;;5066859;28;20509;-56
2021/03/04 12:09:21;;;;;;;12.50;6.40;;;5.90;90.00;;;;;;5067950;28;20041;-58
2021/03/04 12:11:47;;;;;;;13.52;6.22;;;5.90;89.80;;;;;;5062768;28;20424;-57
2021/03/04 12:14:15;;;;;;;13.00;6.20;;;6.00;90.00;;;;;;5069242;28;20086;-57
2021/03/04 12:16:40;;;;;;;11.40;6.15;;;6.00;89.70;;;;;;5051599;28;20044;-57
2021/03/04 12:19:06;;;;;;;12.38;6.40;;;6.00;90.00;;;;;;5072907;28;20040;-57
2021/03/04 12:21:31;;;;;;;12.30;6.22;;;6.00;90.00;;;;;;5066212;28;20447;-56
2021/03/04 12:23:57;;;;;;;12.43;6.13;;;6.00;90.00;;;;;;5066014;28;20059;-57
2021/03/04 12:26:22;;;;;;;10.35;6.10;;;6.00;90.00;;;;;;5066480;28;20516;-57
2021/03/04 12:28:48;;;;;;;10.82;6.18;;;6.00;89.80;;;;;;5064625;28;20494;-57
2021/03/04 12:31:14;;;;;;;11.95;6.15;;;6.00;89.70;;;;;;5049849;28;20060;-57
2021/03/04 12:33:39;;;;;;;9.38;5.68;;;6.10;90.00;;;;;;5055239;28;20051;-57
2021/03/04 12:36:05;;;;;;;15.43;5.93;;;6.00;90.00;;;;;;5054205;28;20443;-57
2021/03/04 12:38:31;;;;;;;11.15;5.68;;;6.00;90.00;;;;;;5067272;28;20475;-57
2021/03/04 12:40:56;;;;;;;9.95;5.45;;;6.00;90.00;;;;;;5081672;28;20052;-57
2021/03/04 12:43:22;;;;;;;12.10;5.53;;;6.00;90.10;;;;;;5079989;28;20036;-58
2021/03/04 12:45:48;;;;;;;9.48;5.53;;;6.00;90.10;;;;;;5074432;28;20045;-57
2021/03/04 12:48:13;;;;;;;14.75;6.53;;;6.10;90.00;;;;;;5060189;28;20040;-57